Latest Coastal Weather Observations for Cape Willoughby

IDS60701

Issued at 11:11 pm CST Saturday 28 May 2016 (issued every 10 minutes, with the page automatically refreshed every 10 minutes)

About coastal observations | Map of coastal stations | Coastal observations for SA | Marine services | Other Formats
Station Details ID: 022803 Name: CAPE WILLOUGHBY Lat: -35.84 Lon: 138.13 Height: 55.0 m
Data from the previous 72 hours. | See also: Recent months at Cape Willoughby
Date/Time
CST
Temp

°C
Wind Pressure Rain
since 9am
mm
Weather Cloud Vis
km
Sea
Height
m
Swell
Dir
 
Speed
knots
Gust
knots
hPa Trend Height
m
Period
s
Dir
28/11:00pm 13.6 ENE 10 13 1018.7 - 1.2 - - - - - - -
28/10:30pm 13.7 ENE 8 11 1018.8 - 1.2 - - - - - - -
28/10:00pm 13.6 ENE 8 11 1018.7 - 1.2 - - - - - - -
28/09:30pm 13.7 E 8 10 1018.9 - 1.2 - - - - - - -
28/09:00pm 13.6 ENE 6 9 1018.8 - 1.2 - - - - - - -
28/08:30pm 13.7 NE 6 9 1018.9 - 1.2 - - - - - - -
28/08:00pm 13.8 E 7 10 1018.8 - 1.2 - - - - - - -
28/07:30pm 13.6 E 8 11 1018.6 - 1.2 - - - - - - -
28/07:00pm 13.7 ESE 9 12 1018.5 - 1.2 - - - - - - -
28/06:30pm 13.9 SE 8 11 1018.2 - 1.2 - - - - - - -
28/06:00pm 13.8 SE 7 9 1018.0 - 1.2 - - - - - - -
28/05:30pm 13.8 SE 7 9 1017.8 - 1.2 - - - - - - -
28/05:00pm 13.9 SSE 7 9 1017.7 - 1.2 - - - - - - -
28/04:30pm 14.0 SE 9 10 1017.5 - 1.2 - - - - - - -
28/04:00pm 13.9 SE 8 10 1017.4 - 1.2 - - - - - - -
28/03:30pm 13.7 SSE 4 7 1017.3 - 1.2 - - - - - - -
28/03:00pm 14.0 SSE 7 12 1017.0 - 1.2 - - - - - - -
28/02:30pm 14.5 SE 6 11 1016.9 - 1.2 - - - - - - -
28/02:00pm 14.4 SSE 8 10 1016.8 - 1.2 - - - - - - -
28/01:30pm 14.2 SSE 9 13 1016.7 - 1.2 - - - - - - -
28/01:00pm 13.9 SSE 7 10 1016.8 - 1.2 - - - - - - -
28/12:30pm 13.5 S 1 5 1016.9 - 1.2 - - - - - - -
28/12:00pm 13.4 ESE 4 7 1017.4 - 0.0 - - - - - - -
28/11:30am 15.2 E 6 8 1017.4 - 0.0 - - - - - - -
28/11:00am 14.6 E 7 9 1017.3 - 0.0 - - - - - - -
28/10:30am 14.6 ESE 4 6 1017.3 - 0.0 - - - - - - -
28/10:00am 14.1 ESE 7 8 1017.1 - 0.0 - - - - - - -
28/09:30am 14.0 ESE 13 17 1016.8 - 0.0 - - - - - - -
28/09:00am 13.9 SE 15 18 1016.2 - 22.6 - - - - - - -
28/08:30am 13.3 SE 14 16 1016.0 - 22.6 - - - - - - -
28/08:00am 12.7 SE 18 23 1015.7 - 22.6 - - - - - - -
28/07:30am 14.1 SSE 16 21 1014.9 - 22.6 - - - - - - -
28/07:00am 13.7 SSE 15 20 1014.3 - 22.6 - - - - - - -
28/06:30am 13.8 SSE 18 23 1013.6 - 22.6 - - - - - - -
28/06:00am 13.5 SSE 19 26 1013.1 - 22.6 - - - - - - -
28/05:30am 13.9 SSE 23 28 1012.6 - 22.6 - - - - - - -
28/05:00am 13.9 SSE 23 30 1012.1 - 22.6 - - - - - - -
28/04:30am 13.9 SSE 26 33 1011.6 - 22.6 - - - - - - -
28/04:00am 13.9 SSE 22 30 1011.3 - 22.6 - - - - - - -
28/03:30am 13.9 SSE 24 33 1010.3 - 22.6 - - - - - - -
28/03:00am 13.8 SSE 27 38 1009.8 - 22.6 - - - - - - -
28/02:55am 14.0 SSE 27 38 1009.4 - 22.6 - - - - - - -
28/02:30am 14.0 S 30 38 1008.8 - 22.6 - - - - - - -
28/02:00am 13.7 S 29 35 1009.0 - 22.6 - - - - - - -
28/01:30am 13.7 S 26 31 1009.0 - 22.6 - - - - - - -
28/01:05am 13.6 S 16 27 1009.2 - 22.6 - - - - - - -
28/01:00am 13.0 S 11 21 1009.3 - 22.4 - - - - - - -
28/12:30am 12.8 S 14 23 1009.1 - 21.4 - - - - - - -
28/12:05am 12.0 SW 14 27 1009.1 - 19.4 - - - - - - -
28/12:00am 11.4 WSW 12 16 1009.2 - 19.2 - - - - - - -
 
Date/Time
CST
Temp

°C
Wind Pressure Rain
since 9am
mm
Weather Cloud Vis
km
Sea
Height
m
Swell
Dir
 
Speed
knots
Gust
knots
hPa Trend Height
m
Period
s
Dir
27/11:30pm 10.7 W 14 18 1009.0 - 19.2 - - - - - - -
27/11:00pm 10.4 WNW 14 17 1008.8 - 19.2 - - - - - - -
27/10:30pm 10.6 W 13 16 1008.6 - 19.2 - - - - - - -
27/10:00pm 11.6 W 16 22 1008.4 - 19.2 - - - - - - -
27/09:30pm 11.3 W 14 19 1008.4 - 19.2 - - - - - - -
27/09:00pm 10.7 WNW 12 17 1008.4 - 19.2 Recent precip. - - - - - -
27/08:30pm 11.8 SSW 13 22 1008.2 - 19.0 - - - - - - -
27/08:14pm 11.3 SW 12 24 1007.8 - 15.0 - - - - - - -
27/08:00pm 10.5 WSW 11 17 1008.2 - 13.2 - - - - - - -
27/07:30pm 9.9 WSW 14 21 1008.1 - 12.6 - - - - - - -
27/07:26pm 10.1 WSW 16 23 1008.0 - 12.6 - - - - - - -
27/07:00pm 10.8 SW 22 28 1007.5 - 11.2 - - - - - - -
27/06:45pm 10.6 SSW 26 36 1007.1 - 10.0 - - - - - - -
27/06:30pm 10.2 SSW 29 35 1006.7 - 8.4 - - - - - - -
27/06:02pm 11.4 SW 23 33 1006.3 - 6.8 - - - - - - -
27/06:00pm 11.2 SW 22 30 1006.6 - 6.8 Recent precip. - - - - - -
27/05:44pm 10.7 SW 25 35 1006.6 - 6.8 - - - - - - -
27/05:37pm 10.8 SSW 22 35 1006.3 - 6.8 - - - - - - -
27/05:31pm 10.6 S 21 36 1006.2 - 6.8 - - - - - - -
27/05:30pm 10.6 SSW 23 37 1006.2 - 6.4 - - - - - - -
27/05:25pm 10.1 SW 21 37 1006.1 - 6.2 - - - - - - -
27/05:22pm 9.6 WSW 18 37 1005.6 - 5.6 - - - - - - -
27/05:10pm 10.9 WSW 19 29 1006.1 - 1.8 - - - - - - -
27/05:00pm 11.5 SW 21 29 1005.8 - 1.4 - - - - - - -
27/04:54pm 11.6 WSW 16 29 1005.9 - 1.4 - - - - - - -
27/04:30pm 11.2 WNW 13 17 1005.4 - 1.4 - - - - - - -
27/04:00pm 11.8 W 15 22 1005.0 - 1.4 - - - - - - -
27/03:30pm 11.0 W 14 19 1004.9 - 1.4 - - - - - - -
27/03:00pm 10.4 NW 8 11 1005.0 - 1.4 Recent precip. - - - - - -
27/02:30pm 10.4 WNW 9 13 1005.1 - 1.2 - - - - - - -
27/02:00pm 11.2 WNW 10 14 1005.2 - 0.6 - - - - - - -
27/01:30pm 10.7 W 8 11 1004.7 - 0.6 - - - - - - -
27/01:00pm 10.7 WNW 13 18 1005.5 - 0.6 - - - - - - -
27/12:30pm 10.8 W 22 32 1005.6 - 0.6 - - - - - - -
27/12:23pm 11.1 W 19 31 1005.6 - 0.6 - - - - - - -
27/12:00pm 11.7 W 20 29 1005.7 - 0.6 Recent precip. - - - - - -
27/11:33am 12.3 WSW 22 34 1006.0 - 0.0 - - - - - - -
27/11:30am 13.0 WSW 20 28 1006.2 - 0.0 - - - - - - -
27/11:00am 14.3 W 14 18 1006.3 - 0.0 - - - - - - -
27/10:30am 14.8 W 13 19 1006.3 - 0.0 - - - - - - -
27/10:00am 13.6 WNW 13 16 1006.4 - 0.0 - - - - - - -
27/09:30am 13.5 W 13 17 1006.3 - 0.0 - - - - - - -
27/09:00am 13.3 WNW 12 16 1006.5 - 3.2 - - - - - - -
27/08:30am 12.2 WNW 13 16 1006.5 - 3.2 - - - - - - -
27/08:00am 12.0 WNW 15 19 1006.5 - 3.2 - - - - - - -
27/07:30am 12.2 WNW 14 17 1006.4 - 3.2 - - - - - - -
27/07:00am 12.3 NW 14 17 1006.5 - 3.2 - - - - - - -
27/06:30am 12.2 NW 13 16 1006.4 - 3.2 - - - - - - -
27/06:00am 11.6 NW 11 13 1006.6 - 3.2 Recent precip. - - - - - -
27/05:30am 12.1 NW 13 17 1006.8 - 3.2 - - - - - - -
27/05:00am 12.2 NW 15 18 1007.1 - 2.6 - - - - - - -
27/04:30am 12.0 NW 14 17 1007.4 - 2.6 - - - - - - -
27/04:06am 13.6 NW 16 27 1007.7 - 2.0 - - - - - - -
27/04:00am 13.6 NW 14 18 1007.7 - 2.0 - - - - - - -
27/03:30am 13.3 NW 13 17 1007.8 - 1.6 - - - - - - -
27/03:00am 12.9 NNW 13 16 1008.1 - 1.6 - - - - - - -
27/02:30am 12.6 NNW 9 12 1008.7 - 1.6 - - - - - - -
27/02:00am 11.7 NNW 7 8 1008.9 - 1.6 - - - - - - -
27/01:30am 11.5 NNW 9 10 1009.3 - 1.6 - - - - - - -
27/01:00am 11.7 NW 9 9 1009.5 - 1.6 - - - - - - -
27/12:30am 11.9 WNW 10 10 1009.8 - 1.6 - - - - - - -
27/12:00am 11.5 WNW 10 10 1010.2 - 1.6 - - - - - - -
 
Date/Time
CST
Temp

°C
Wind Pressure Rain
since 9am
mm
Weather Cloud Vis
km
Sea
Height
m
Swell
Dir
 
Speed
knots
Gust
knots
hPa Trend Height
m
Period
s
Dir
26/11:30pm 11.4 WNW 11 11 1010.5 - 1.6 - - - - - - -
26/11:00pm 11.4 WNW 10 11 1010.6 - 1.6 - - - - - - -
26/10:30pm 11.5 WNW 10 11 1010.8 - 1.6 - - - - - - -
26/10:00pm 11.6 WNW 10 12 1011.0 - 1.6 - - - - - - -
26/09:30pm 11.8 WNW 11 13 1011.2 - 1.6 - - - - - - -
26/09:00pm 11.5 WNW 12 15 1011.4 - 1.6 - - - - - - -
26/08:30pm 11.3 WNW 11 13 1011.3 - 1.6 - - - - - - -
26/08:00pm 11.5 WNW 9 10 1011.2 - 1.6 - - - - - - -
26/07:30pm 11.6 WNW 9 10 1011.0 - 1.6 - - - - - - -
26/07:00pm 11.7 WNW 9 10 1010.9 - 1.6 - - - - - - -
26/06:30pm 12.1 WNW 9 11 1010.7 - 1.6 - - - - - - -
26/06:00pm 12.2 WNW 9 10 1010.3 - 1.6 - - - - - - -
26/05:30pm 12.6 WNW 7 8 1010.1 - 1.6 - - - - - - -
26/05:00pm 13.3 W 5 8 1009.9 - 1.6 - - - - - - -
26/04:30pm 13.6 SW 11 15 1009.5 - 1.4 - - - - - - -
26/04:00pm 14.8 SW 10 13 1009.3 - 0.4 - - - - - - -
26/03:30pm 15.3 WSW 11 16 1009.2 - 0.4 - - - - - - -
26/03:00pm 15.4 SW 11 16 1008.9 - 0.4 Recent precip. - - - - - -
26/02:30pm 15.1 SW 12 15 1008.9 - 0.2 - - - - - - -
26/02:00pm 15.3 SW 12 16 1008.9 - 0.2 - - - - - - -
26/01:30pm 15.5 SW 9 13 1009.0 - 0.2 - - - - - - -
26/01:00pm 15.4 W 10 14 1009.3 - 0.2 - - - - - - -
26/12:30pm 13.3 SSW 12 24 1009.2 - 0.2 - - - - - - -
26/12:00pm 15.6 WSW 11 16 1009.3 - 0.0 - - - - - - -
26/11:30am 15.1 WSW 11 15 1009.3 - 0.0 - - - - - - -
26/11:00am 15.2 SW 9 14 1009.5 - 0.0 - - - - - - -
26/10:30am 15.0 WSW 10 14 1009.5 - 0.0 - - - - - - -
26/10:00am 14.5 W 8 11 1009.5 - 0.0 - - - - - - -
26/09:30am 13.6 W 11 15 1009.3 - 0.0 - - - - - - -
26/09:00am 13.0 W 10 13 1009.1 - 5.4 - - - - - - -
26/08:30am 12.0 W 9 12 1008.9 - 5.4 - - - - - - -
26/08:00am 11.5 W 9 12 1008.8 - 5.4 - - - - - - -
26/07:30am 10.7 WNW 10 12 1008.6 - 5.4 - - - - - - -
26/07:00am 11.6 W 11 13 1008.4 - 5.4 - - - - - - -
26/06:30am 11.7 WSW 9 12 1008.1 - 5.4 - - - - - - -
26/06:00am 12.0 WSW 12 15 1007.9 - 5.4 Recent precip. - - - - - -
26/05:30am 12.1 W 13 17 1007.8 - 5.2 - - - - - - -
26/05:00am 12.2 W 7 9 1007.6 - 5.2 - - - - - - -
26/04:30am 12.1 W 7 8 1007.4 - 5.2 - - - - - - -
26/04:00am 12.2 WSW 8 12 1007.3 - 5.2 - - - - - - -
26/03:30am 13.7 SSW 10 13 1007.1 - 5.0 - - - - - - -
26/03:00am 13.6 SSW 8 10 1007.1 - 5.0 - - - - - - -
26/02:30am 13.5 SSW 8 10 1007.3 - 5.0 - - - - - - -
26/02:00am 13.3 S 6 7 1006.9 - 5.0 - - - - - - -
26/01:30am 12.8 SSW 8 12 1007.0 - 4.6 - - - - - - -
26/01:00am 13.4 S 16 19 1006.6 - 2.0 - - - - - - -
26/12:57am 13.5 S 15 19 1006.7 - 2.0 - - - - - - -
26/12:30am 13.2 WSW 5 6 1006.9 - 2.0 - - - - - - -
26/12:00am 13.5 SW 6 7 1007.1 - 2.0 - - - - - - -
 
Date/Time
CST
Temp

°C
Wind Pressure Rain
since 9am
mm
Weather Cloud Vis
km
Sea
Height
m
Swell
Dir
 
Speed
knots
Gust
knots
hPa Trend Height
m
Period
s
Dir
25/11:30pm 14.2 SSW 7 9 1007.3 - 2.0 - - - - - - -

Other Formats:

Comma delimited format used in spreadsheet applications
http://www.bom.gov.au/fwo/IDS60701/IDS60701.94822.axf

JavaScript Object Notation format (JSON) in row-major order
http://www.bom.gov.au/fwo/IDS60701/IDS60701.94822.json